Terminal Aerodrome Forecast
Issued by NWS

Home | Current Version | Previous Version | Text Only | Print | Product List | Glossary On
Versions: 1 2 3 4 5 6 7 8 9 10 11 12 13 14 15 16 17 18 19 20 21 22 23 24 25 26 27 28 29 30 31 32 33 34 35 36 37 38 39 40
000
FTUS42 KEYW 221700 AAA
TAFMTH
TAF AMD
KMTH 221724Z 2217/2312 VRB06KT P6SM VCSH SCT020 SCT050 BKN120
      TEMPO 2218/2221 VRB10G20KT 4SM +SHRA BR BKN020 BKN050
     FM230000 16006KT P6SM SCT020 SCT050=

USA.gov is the U.S. government's official web portal to all federal, state and local government web resources and services.